createdAt,value
2023-05-24T00:00:18.612Z,3.10
2023-05-24T00:02:47.441Z,3.63
2023-05-24T00:05:16.848Z,2.80
2023-05-24T00:07:47.065Z,3.15
2023-05-24T00:10:15.693Z,3.47
2023-05-24T00:12:44.273Z,3.25
2023-05-24T00:15:13.079Z,3.00
2023-05-24T00:17:42.737Z,3.25
2023-05-24T00:20:14.242Z,3.00
2023-05-24T00:22:43.315Z,3.03
2023-05-24T00:25:13.389Z,3.28
2023-05-24T00:27:42.168Z,3.25
2023-05-24T00:30:11.264Z,3.65
2023-05-24T00:32:40.722Z,2.85
2023-05-24T00:35:10.055Z,3.15
2023-05-24T00:37:41.892Z,2.40
2023-05-24T00:40:11.305Z,2.70
2023-05-24T00:42:44.178Z,2.63
2023-05-24T00:45:13.838Z,2.65
2023-05-24T00:47:42.886Z,2.53
2023-05-24T00:50:14.495Z,3.15
2023-05-24T00:52:43.966Z,2.88
2023-05-24T00:55:13.887Z,2.83
2023-05-24T00:57:43.945Z,2.60
2023-05-24T01:00:13.609Z,2.60
2023-05-24T01:02:42.618Z,2.78
2023-05-24T01:05:13.548Z,3.20
2023-05-24T01:08:00.812Z,2.80
2023-05-24T01:10:37.426Z,2.50
2023-05-24T01:13:19.310Z,3.08
2023-05-24T01:15:57.131Z,2.38
2023-05-24T01:18:30.414Z,2.78
2023-05-24T01:21:07.721Z,3.35
2023-05-24T01:23:45.851Z,2.33
2023-05-24T01:26:22.170Z,2.63
2023-05-24T01:28:53.177Z,2.67
2023-05-24T01:31:23.131Z,2.88
2023-05-24T01:33:51.902Z,3.30
2023-05-24T01:36:22.070Z,3.33
2023-05-24T01:38:52.131Z,2.63
2023-05-24T01:41:30.280Z,3.05
2023-05-24T01:44:07.262Z,2.60
2023-05-24T01:46:38.340Z,2.80
2023-05-24T01:49:17.108Z,3.10
2023-05-24T01:51:51.836Z,2.50
2023-05-24T01:54:24.214Z,2.35
2023-05-24T01:56:55.298Z,2.50
2023-05-24T01:59:27.359Z,2.33
2023-05-24T02:01:56.786Z,2.70
2023-05-24T02:04:26.184Z,2.70
2023-05-24T02:06:54.826Z,3.35
2023-05-24T02:09:23.491Z,2.70
2023-05-24T02:11:52.111Z,2.50
2023-05-24T02:14:20.906Z,2.80
2023-05-24T02:16:51.996Z,2.63
2023-05-24T02:19:21.533Z,2.53
2023-05-24T02:21:50.115Z,2.50
2023-05-24T02:24:18.791Z,2.90
2023-05-24T02:26:47.648Z,2.80
2023-05-24T02:29:16.497Z,2.70
2023-05-24T02:31:45.099Z,2.63
2023-05-24T02:34:15.295Z,2.33
2023-05-24T02:36:45.810Z,2.55
2023-05-24T02:39:14.738Z,2.63
2023-05-24T02:41:43.566Z,3.58
2023-05-24T02:44:12.182Z,2.75
2023-05-24T02:46:41.270Z,2.45
2023-05-24T02:49:10.511Z,2.58
2023-05-24T02:51:40.590Z,2.67
2023-05-24T02:54:09.341Z,3.15
2023-05-24T02:56:39.519Z,2.28
2023-05-24T02:59:08.157Z,2.95
2023-05-24T03:01:36.854Z,2.30
2023-05-24T03:04:05.691Z,2.60
2023-05-24T03:06:34.431Z,2.95
2023-05-24T03:09:05.601Z,2.60
2023-05-24T03:11:34.270Z,2.45
2023-05-24T03:14:05.118Z,3.00
2023-05-24T03:16:36.872Z,2.92
2023-05-24T03:19:08.439Z,2.67
2023-05-24T03:21:39.054Z,2.53
2023-05-24T03:24:09.601Z,3.58
2023-05-24T03:26:39.879Z,2.78
2023-05-24T03:29:09.194Z,2.80
2023-05-24T03:31:41.283Z,3.58
2023-05-24T03:34:10.250Z,3.30
2023-05-24T03:36:40.510Z,3.20
2023-05-24T03:39:10.726Z,2.85
2023-05-24T03:41:55.452Z,2.50
2023-05-24T03:44:24.157Z,2.80
2023-05-24T03:46:52.815Z,2.90
2023-05-24T03:49:21.470Z,2.97
2023-05-24T03:51:51.041Z,3.30
2023-05-24T03:54:21.592Z,2.60
2023-05-24T03:56:53.205Z,2.80
2023-05-24T03:59:22.957Z,3.00
2023-05-24T04:01:51.744Z,3.40
2023-05-24T04:04:21.091Z,3.15
2023-05-24T04:06:49.803Z,3.20
2023-05-24T04:09:18.474Z,2.92
2023-05-24T04:11:48.850Z,2.72
2023-05-24T04:14:17.608Z,2.97
2023-05-24T04:16:48.385Z,3.08
2023-05-24T04:19:17.095Z,3.67
2023-05-24T04:21:46.421Z,2.95
2023-05-24T04:24:15.088Z,2.97
2023-05-24T04:26:47.777Z,3.63
2023-05-24T04:29:18.222Z,3.83
2023-05-24T04:31:48.446Z,3.40
2023-05-24T04:34:17.212Z,3.90
2023-05-24T04:36:47.597Z,3.47
2023-05-24T04:39:16.703Z,3.95
2023-05-24T04:41:46.213Z,3.35
2023-05-24T04:44:14.865Z,3.50
2023-05-24T04:46:44.947Z,4.43
2023-05-24T04:49:13.814Z,3.65
2023-05-24T04:51:42.557Z,3.70
2023-05-24T04:54:13.616Z,4.18
2023-05-24T04:56:42.343Z,3.45
2023-05-24T04:59:11.165Z,3.80
2023-05-24T05:01:40.868Z,3.65
2023-05-24T05:04:11.035Z,3.58
2023-05-24T05:06:40.579Z,3.63
2023-05-24T05:09:10.603Z,3.60
2023-05-24T05:11:39.479Z,4.00
2023-05-24T05:14:09.660Z,3.75
2023-05-24T05:16:39.615Z,4.55
2023-05-24T05:19:08.266Z,4.13
2023-05-24T05:21:39.748Z,4.40
2023-05-24T05:24:08.407Z,3.70
2023-05-24T05:26:37.285Z,4.05
2023-05-24T05:29:05.936Z,3.67
2023-05-24T05:31:34.617Z,4.45
2023-05-24T05:34:03.321Z,4.28
2023-05-24T05:36:32.356Z,4.43
2023-05-24T05:39:02.414Z,4.05
2023-05-24T05:41:31.210Z,4.57
2023-05-24T05:43:59.831Z,4.55
2023-05-24T05:46:28.501Z,3.92
2023-05-24T05:48:57.300Z,4.65
2023-05-24T05:51:26.240Z,4.57
2023-05-24T05:53:54.816Z,5.20
2023-05-24T05:56:24.801Z,4.22
2023-05-24T05:58:53.420Z,4.60
2023-05-24T06:01:22.043Z,4.28
2023-05-24T06:03:51.960Z,4.32
2023-05-24T06:06:20.614Z,3.72
2023-05-24T06:08:49.366Z,4.32
2023-05-24T06:11:18.082Z,4.25
2023-05-24T06:13:48.098Z,4.05
2023-05-24T06:16:16.862Z,4.68
2023-05-24T06:18:57.156Z,4.35
2023-05-24T06:21:32.729Z,4.88
2023-05-24T06:24:02.641Z,5.35
2023-05-24T06:26:31.556Z,5.35
2023-05-24T06:29:01.588Z,4.63
2023-05-24T06:31:30.228Z,4.95
2023-05-24T06:36:30.994Z,4.80
2023-05-24T06:38:59.723Z,5.03
2023-05-24T06:41:31.158Z,4.50
2023-05-24T06:44:01.449Z,4.50
2023-05-24T06:46:30.098Z,4.63
2023-05-24T06:48:58.900Z,4.07
2023-05-24T06:51:27.739Z,4.75
2023-05-24T06:53:56.864Z,4.30
2023-05-24T06:56:25.487Z,4.40
2023-05-24T06:58:54.215Z,4.13
2023-05-24T07:01:24.446Z,6.18
2023-05-24T07:03:53.262Z,4.43
2023-05-24T07:06:21.950Z,5.25
2023-05-24T07:08:50.746Z,4.55
2023-05-24T07:11:19.594Z,4.63
2023-05-24T07:13:48.273Z,5.32
2023-05-24T07:16:16.963Z,5.07
2023-05-24T07:18:46.969Z,5.05
2023-05-24T07:21:15.623Z,5.20
2023-05-24T07:23:44.202Z,5.05
2023-05-24T07:26:12.924Z,4.82
2023-05-24T07:28:41.573Z,5.43
2023-05-24T07:31:10.491Z,5.13
2023-05-24T07:33:39.345Z,4.50
2023-05-24T07:36:09.871Z,4.65
2023-05-24T07:38:39.066Z,5.40
2023-05-24T07:41:08.705Z,4.28
2023-05-24T07:43:38.324Z,4.43
2023-05-24T07:46:10.324Z,4.85
2023-05-24T07:48:39.042Z,4.65
2023-05-24T07:51:09.060Z,3.92
2023-05-24T07:53:37.797Z,4.93
2023-05-24T07:56:08.045Z,4.68
2023-05-24T07:58:36.911Z,3.53
2023-05-24T08:01:06.426Z,4.18
2023-05-24T08:03:36.954Z,5.22
2023-05-24T08:06:05.830Z,4.28
2023-05-24T08:08:36.275Z,3.78
2023-05-24T08:11:04.958Z,4.47
2023-05-24T08:13:33.579Z,3.50
2023-05-24T08:16:02.220Z,3.47
2023-05-24T08:18:30.852Z,3.25
2023-05-24T08:20:59.510Z,3.92
2023-05-24T08:23:29.874Z,4.18
2023-05-24T08:25:59.970Z,4.13
2023-05-24T08:28:29.336Z,3.92
2023-05-24T08:30:58.643Z,4.03
2023-05-24T08:33:27.298Z,4.55
2023-05-24T08:35:56.177Z,4.78
2023-05-24T08:38:24.868Z,3.90
2023-05-24T08:40:54.479Z,4.60
2023-05-24T08:43:24.775Z,4.13
2023-05-24T08:45:54.292Z,3.72
2023-05-24T08:48:25.046Z,3.72
2023-05-24T08:50:54.155Z,3.65
2023-05-24T08:53:23.595Z,3.83
2023-05-24T08:55:55.878Z,3.60
2023-05-24T08:58:26.057Z,3.70
2023-05-24T09:00:54.758Z,4.20
2023-05-24T09:03:24.898Z,3.53
2023-05-24T09:05:54.200Z,4.05
2023-05-24T09:08:23.643Z,3.38
2023-05-24T09:10:54.626Z,3.63
2023-05-24T09:13:25.922Z,3.95
2023-05-24T09:15:54.657Z,3.45
2023-05-24T09:18:23.366Z,4.45
2023-05-24T09:20:53.812Z,3.78
2023-05-24T09:23:23.732Z,3.50
2023-05-24T09:25:52.390Z,4.30
2023-05-24T09:28:22.314Z,3.55
2023-05-24T09:31:06.310Z,4.15
2023-05-24T09:33:36.678Z,3.35
2023-05-24T09:36:08.162Z,3.55
2023-05-24T09:38:37.124Z,4.13
2023-05-24T09:41:07.525Z,3.55
2023-05-24T09:43:48.230Z,3.83
2023-05-24T09:46:20.018Z,3.88
2023-05-24T09:48:58.646Z,4.32
2023-05-24T09:51:28.081Z,4.30
2023-05-24T09:53:59.049Z,4.85
2023-05-24T09:56:28.268Z,4.20
2023-05-24T09:58:58.064Z,4.38
2023-05-24T10:01:28.405Z,3.78
2023-05-24T10:03:59.294Z,3.97
2023-05-24T10:06:28.950Z,3.65
2023-05-24T10:09:01.040Z,4.22
2023-05-24T10:11:29.845Z,4.13
2023-05-24T10:14:00.020Z,4.57
2023-05-24T10:16:30.044Z,3.67
2023-05-24T10:18:58.757Z,4.05
2023-05-24T10:21:30.736Z,4.45
2023-05-24T10:24:03.288Z,3.70
2023-05-24T10:26:33.746Z,4.28
2023-05-24T10:29:08.679Z,4.82
2023-05-24T10:31:41.439Z,3.92
2023-05-24T10:34:11.274Z,4.75
2023-05-24T10:36:41.193Z,5.22
2023-05-24T10:39:12.860Z,4.82
2023-05-24T10:41:42.338Z,4.97
2023-05-24T10:44:14.616Z,4.70
2023-05-24T10:47:04.798Z,4.53
2023-05-24T10:49:33.662Z,5.22
2023-05-24T10:52:03.528Z,4.57
2023-05-24T10:54:32.170Z,5.68
2023-05-24T10:57:04.493Z,5.88
2023-05-24T10:59:37.648Z,6.50
2023-05-24T11:02:13.734Z,5.88
2023-05-24T11:04:44.434Z,6.45
2023-05-24T11:07:15.605Z,5.30
2023-05-24T11:09:47.139Z,5.00
2023-05-24T11:12:18.064Z,5.18
2023-05-24T11:14:49.785Z,4.90
2023-05-24T11:17:21.495Z,5.57
2023-05-24T11:19:52.938Z,7.88
2023-05-24T11:22:23.507Z,9.50
2023-05-24T11:24:53.542Z,9.55
2023-05-24T11:27:23.012Z,7.97
2023-05-24T11:29:52.147Z,9.02
2023-05-24T11:32:24.029Z,9.65
2023-05-24T11:34:52.933Z,9.32
2023-05-24T11:37:28.800Z,7.53
2023-05-24T11:40:06.383Z,8.13
2023-05-24T11:42:35.242Z,7.82
2023-05-24T11:45:04.552Z,8.05
2023-05-24T11:47:37.007Z,8.23
2023-05-24T11:50:06.945Z,7.82
2023-05-24T11:52:41.939Z,8.13
2023-05-24T11:55:17.151Z,8.68
2023-05-24T11:57:53.419Z,9.00
2023-05-24T12:00:25.985Z,8.93
2023-05-24T12:02:57.870Z,10.15
2023-05-24T12:05:26.504Z,10.82
2023-05-24T12:08:05.064Z,10.57
2023-05-24T12:10:35.390Z,9.25
2023-05-24T12:13:04.747Z,9.70
2023-05-24T12:15:34.193Z,9.10
2023-05-24T12:18:04.512Z,7.60
2023-05-24T12:20:33.293Z,7.03
2023-05-24T12:23:02.413Z,7.07
2023-05-24T12:25:30.994Z,6.13
2023-05-24T12:27:59.749Z,7.38
2023-05-24T12:30:28.579Z,8.50
2023-05-24T12:32:57.677Z,8.88
2023-05-24T12:35:27.934Z,8.48
2023-05-24T12:38:00.952Z,8.55
2023-05-24T12:40:33.694Z,7.47
2023-05-24T12:43:03.706Z,8.27
2023-05-24T12:45:32.663Z,8.10
2023-05-24T12:48:02.924Z,8.15
2023-05-24T12:50:34.865Z,7.88
2023-05-24T12:53:03.522Z,7.75
2023-05-24T12:55:32.486Z,7.32
2023-05-24T12:58:03.328Z,6.82
2023-05-24T13:00:31.962Z,6.75
2023-05-24T13:03:00.870Z,5.75
2023-05-24T13:05:30.854Z,5.47
2023-05-24T13:08:00.927Z,5.50
2023-05-24T13:10:29.501Z,5.55
2023-05-24T13:12:58.164Z,5.40
2023-05-24T13:15:27.417Z,5.50
2023-05-24T13:17:56.267Z,4.85
2023-05-24T13:20:25.130Z,4.40
2023-05-24T13:22:53.855Z,5.18
2023-05-24T13:25:23.916Z,4.80
2023-05-24T13:27:52.850Z,4.47
2023-05-24T13:30:27.891Z,4.15
2023-05-24T13:32:58.593Z,4.32
2023-05-24T13:35:27.621Z,4.00
2023-05-24T13:37:57.989Z,4.07
2023-05-24T13:40:28.077Z,4.38
2023-05-24T13:42:58.276Z,4.35
2023-05-24T13:45:27.059Z,4.65
2023-05-24T13:48:03.568Z,4.50
2023-05-24T13:50:32.557Z,4.50
2023-05-24T13:53:02.136Z,4.85
2023-05-24T13:55:34.047Z,4.35
2023-05-24T13:58:04.906Z,4.45
2023-05-24T14:00:35.934Z,4.07
2023-05-24T14:03:05.998Z,4.10
2023-05-24T14:05:35.330Z,5.88
2023-05-24T14:08:06.719Z,4.05
2023-05-24T14:10:39.937Z,4.20
2023-05-24T14:15:40.831Z,4.68
2023-05-24T14:18:09.808Z,4.68
2023-05-24T14:20:40.723Z,4.30
2023-05-24T14:23:10.113Z,4.10
2023-05-24T14:25:41.344Z,4.43
2023-05-24T14:28:10.253Z,4.32
2023-05-24T14:30:39.650Z,3.88
2023-05-24T14:33:08.622Z,3.90
2023-05-24T14:35:39.744Z,4.47
2023-05-24T14:38:10.071Z,4.57
2023-05-24T14:40:40.902Z,4.20
2023-05-24T14:43:10.247Z,3.83
2023-05-24T14:45:41.285Z,4.40
2023-05-24T14:48:12.336Z,4.15
2023-05-24T14:50:41.918Z,3.97
2023-05-24T14:53:12.396Z,3.70
2023-05-24T14:55:43.897Z,4.00
2023-05-24T14:58:13.495Z,4.50
2023-05-24T15:00:43.315Z,4.10
2023-05-24T15:03:14.547Z,4.30
2023-05-24T15:05:43.749Z,3.90
2023-05-24T15:08:12.781Z,4.60
2023-05-24T15:10:44.457Z,3.90
2023-05-24T15:13:14.050Z,4.32
2023-05-24T15:15:43.300Z,4.38
2023-05-24T15:18:12.084Z,3.72
2023-05-24T15:20:41.250Z,4.13
2023-05-24T15:23:10.779Z,4.40
2023-05-24T15:25:39.578Z,4.95
2023-05-24T15:28:10.668Z,4.40
2023-05-24T15:30:39.329Z,4.57
2023-05-24T15:33:08.075Z,3.92
2023-05-24T15:35:37.296Z,4.53
2023-05-24T15:38:06.413Z,4.55
2023-05-24T15:40:35.010Z,4.40
2023-05-24T15:43:03.689Z,4.72
2023-05-24T15:45:33.741Z,3.95
2023-05-24T15:48:04.558Z,3.90
2023-05-24T15:50:54.028Z,4.10
2023-05-24T15:53:22.483Z,4.00
2023-05-24T15:55:51.172Z,4.20
2023-05-24T15:58:19.920Z,4.50
2023-05-24T16:00:50.935Z,4.18
2023-05-24T16:03:20.095Z,4.40
2023-05-24T16:05:49.438Z,4.30
2023-05-24T16:08:18.235Z,3.88
2023-05-24T16:10:48.382Z,4.18
2023-05-24T16:13:17.183Z,3.72
2023-05-24T16:15:51.295Z,4.13
2023-05-24T16:18:22.619Z,4.22
2023-05-24T16:20:52.780Z,4.40
2023-05-24T16:23:22.931Z,4.32
2023-05-24T16:25:52.068Z,3.63
2023-05-24T16:28:23.875Z,4.00
2023-05-24T16:30:56.440Z,4.45
2023-05-24T16:33:26.932Z,4.03
2023-05-24T16:36:03.013Z,4.32
2023-05-24T16:38:32.191Z,4.05
2023-05-24T16:41:00.847Z,3.90
2023-05-24T16:43:29.670Z,4.20
2023-05-24T16:45:58.328Z,4.03
2023-05-24T16:48:29.147Z,4.00
2023-05-24T16:50:57.982Z,4.15
2023-05-24T16:53:28.112Z,3.60
2023-05-24T16:55:57.925Z,4.47
2023-05-24T16:58:28.802Z,3.97
2023-05-24T17:00:58.534Z,3.75
2023-05-24T17:03:29.656Z,3.70
2023-05-24T17:06:03.370Z,3.42
2023-05-24T17:08:34.504Z,4.25
2023-05-24T17:11:03.758Z,3.58
2023-05-24T17:13:32.467Z,3.55
2023-05-24T17:16:01.537Z,3.78
2023-05-24T17:18:31.589Z,4.18
2023-05-24T17:21:01.852Z,4.38
2023-05-24T17:23:32.437Z,3.63
2023-05-24T17:26:02.765Z,4.50
2023-05-24T17:28:31.803Z,3.80
2023-05-24T17:31:01.898Z,3.63
2023-05-24T17:33:32.898Z,3.40
2023-05-24T17:36:03.246Z,3.63
2023-05-24T17:38:33.061Z,3.80
2023-05-24T17:41:01.908Z,3.00
2023-05-24T17:43:32.473Z,3.30
2023-05-24T17:46:06.582Z,3.90
2023-05-24T17:48:38.094Z,4.07
2023-05-24T17:51:08.371Z,4.07
2023-05-24T17:53:38.303Z,3.58
2023-05-24T17:56:07.702Z,4.05
2023-05-24T17:58:37.140Z,3.40
2023-05-24T18:01:07.456Z,3.35
2023-05-24T18:03:39.036Z,3.15
2023-05-24T18:06:09.118Z,3.83
2023-05-24T18:08:43.118Z,4.53
2023-05-24T18:11:13.309Z,3.97
2023-05-24T18:13:43.839Z,3.63
2023-05-24T18:16:13.713Z,3.80
2023-05-24T18:18:44.317Z,4.55
2023-05-24T18:21:13.377Z,3.80
2023-05-24T18:23:42.495Z,4.38
2023-05-24T18:26:12.586Z,4.13
2023-05-24T18:28:42.038Z,4.00
2023-05-24T18:31:11.610Z,4.07
2023-05-24T18:33:40.567Z,3.95
2023-05-24T18:36:10.740Z,5.15
2023-05-24T18:38:40.496Z,4.07
2023-05-24T18:41:11.903Z,3.95
2023-05-24T18:43:42.735Z,4.05
2023-05-24T18:46:13.785Z,4.22
2023-05-24T18:48:43.018Z,4.70
2023-05-24T18:51:13.621Z,4.97
2023-05-24T18:53:42.825Z,4.70
2023-05-24T18:56:11.524Z,4.43
2023-05-24T18:58:41.334Z,4.88
2023-05-24T19:01:10.777Z,4.82
2023-05-24T19:03:41.687Z,4.63
2023-05-24T19:06:10.495Z,5.47
2023-05-24T19:08:40.418Z,5.07
2023-05-24T19:11:11.152Z,4.95
2023-05-24T19:13:40.073Z,5.32
2023-05-24T19:16:08.758Z,5.35
2023-05-24T19:18:37.377Z,5.15
2023-05-24T19:21:05.999Z,4.95
2023-05-24T19:23:36.445Z,5.32
2023-05-24T19:26:06.516Z,5.53
2023-05-24T19:28:40.308Z,6.05
2023-05-24T19:31:09.207Z,5.45
2023-05-24T19:33:48.542Z,5.53
2023-05-24T19:36:26.531Z,5.63
2023-05-24T19:38:55.881Z,5.53
2023-05-24T19:41:26.687Z,6.53
2023-05-24T19:43:58.458Z,5.65
2023-05-24T19:46:27.345Z,5.32
2023-05-24T19:48:56.091Z,5.45
2023-05-24T19:51:24.975Z,6.15
2023-05-24T19:53:53.714Z,5.78
2023-05-24T19:56:23.445Z,5.68
2023-05-24T19:58:53.407Z,5.60
2023-05-24T20:01:22.225Z,5.97
2023-05-24T20:03:50.859Z,4.90
2023-05-24T20:06:19.723Z,4.45
2023-05-24T20:08:48.649Z,5.30
2023-05-24T20:11:17.604Z,5.13
2023-05-24T20:13:52.477Z,4.25
2023-05-24T20:16:23.087Z,4.55
2023-05-24T20:18:52.142Z,4.78
2023-05-24T20:21:20.873Z,4.63
2023-05-24T20:23:50.641Z,4.10
2023-05-24T20:26:19.293Z,4.25
2023-05-24T20:28:50.090Z,3.90
2023-05-24T20:31:19.580Z,4.07
2023-05-24T20:33:51.462Z,4.55
2023-05-24T20:36:20.288Z,4.63
2023-05-24T20:38:49.134Z,3.97
2023-05-24T20:41:17.947Z,4.30
2023-05-24T20:43:46.684Z,4.13
2023-05-24T20:46:16.575Z,4.20
2023-05-24T20:48:45.220Z,3.95
2023-05-24T20:51:15.213Z,5.13
2023-05-24T20:53:45.607Z,4.45
2023-05-24T20:56:14.340Z,4.60
2023-05-24T20:58:43.840Z,4.40
2023-05-24T21:01:12.682Z,4.40
2023-05-24T21:03:41.492Z,4.35
2023-05-24T21:06:10.323Z,4.97
2023-05-24T21:08:40.524Z,5.22
2023-05-24T21:11:09.188Z,4.97
2023-05-24T21:13:37.937Z,5.03
2023-05-24T21:16:07.063Z,4.97
2023-05-24T21:18:35.800Z,5.30
2023-05-24T21:21:06.385Z,5.72
2023-05-24T21:23:34.957Z,4.95
2023-05-24T21:26:05.034Z,4.78
2023-05-24T21:28:33.718Z,4.70
2023-05-24T21:31:05.168Z,5.20
2023-05-24T21:33:33.880Z,4.65
2023-05-24T21:36:03.194Z,5.07
2023-05-24T21:38:31.791Z,5.13
2023-05-24T21:41:00.515Z,4.80
2023-05-24T21:43:30.512Z,5.07
2023-05-24T21:45:59.133Z,4.85
2023-05-24T21:48:27.713Z,5.57
2023-05-24T21:50:56.434Z,5.57
2023-05-24T21:53:24.985Z,5.25
2023-05-24T21:55:53.596Z,4.40
2023-05-24T21:58:22.469Z,4.97
2023-05-24T22:00:52.456Z,5.32
2023-05-24T22:03:21.204Z,5.43
2023-05-24T22:05:49.926Z,5.72
2023-05-24T22:08:18.492Z,5.35
2023-05-24T22:10:47.110Z,5.20
2023-05-24T22:13:15.875Z,5.70
2023-05-24T22:15:44.776Z,5.03
2023-05-24T22:18:18.188Z,6.50
2023-05-24T22:20:46.772Z,4.85
2023-05-24T22:23:15.537Z,5.38
2023-05-24T22:25:44.904Z,6.18
2023-05-24T22:28:14.229Z,5.80
2023-05-24T22:30:42.922Z,4.85
2023-05-24T22:33:13.792Z,5.72
2023-05-24T22:35:44.447Z,5.00
2023-05-24T22:38:13.644Z,5.63
2023-05-24T22:40:42.426Z,5.13
2023-05-24T22:43:11.179Z,6.22
2023-05-24T22:45:39.943Z,5.03
2023-05-24T22:48:08.646Z,5.25
2023-05-24T22:50:38.428Z,5.38
2023-05-24T22:53:09.101Z,6.38
2023-05-24T22:55:37.662Z,6.00
2023-05-24T22:58:06.322Z,5.65
2023-05-24T23:00:35.167Z,5.80
2023-05-24T23:03:03.838Z,4.93
2023-05-24T23:05:32.490Z,5.43
2023-05-24T23:08:01.141Z,5.50
2023-05-24T23:10:31.738Z,5.32
2023-05-24T23:13:00.262Z,5.70
2023-05-24T23:15:28.985Z,5.32
2023-05-24T23:17:58.544Z,4.90
2023-05-24T23:20:27.893Z,5.45
2023-05-24T23:22:58.812Z,5.50
2023-05-24T23:25:27.402Z,5.07
2023-05-24T23:27:57.368Z,5.18
2023-05-24T23:30:26.122Z,5.60
2023-05-24T23:32:55.030Z,6.65
2023-05-24T23:35:23.772Z,5.50
2023-05-24T23:37:53.736Z,5.32
2023-05-24T23:40:22.618Z,5.47
2023-05-24T23:42:51.279Z,5.65
2023-05-24T23:45:21.284Z,5.43
2023-05-24T23:47:49.995Z,5.00
2023-05-24T23:50:22.305Z,5.10
2023-05-24T23:52:51.566Z,6.43
2023-05-24T23:55:20.728Z,5.40
2023-05-24T23:57:49.352Z,5.72
